Time;durP1;ratioP1;P1;durP2;ratioP2;P2;SDS_P1;SDS_P2;PMS_P1;PMS_P2;Temp;Humidity;BMP_temperature;BMP_pressure;BME280_temperature;BME280_humidity;BME280_pressure;Samples;Min_cycle;Max_cycle;Signal;HPM_P1;HPM_P2
2021/03/21 00:02:19;;;;;;;10.13;6.22;;;0.90;60.70;;;-1.10;60.17;96616.97;4946041;28;20038;-68
2021/03/21 00:04:45;;;;;;;10.20;7.00;;;0.90;60.40;;;-1.09;60.09;96624.59;4917839;28;20154;-68
2021/03/21 00:07:10;;;;;;;10.40;6.78;;;0.90;61.00;;;-1.12;60.17;96618.81;4943346;28;20329;-67
2021/03/21 00:09:36;;;;;;;11.40;6.15;;;0.80;60.50;;;-1.10;59.81;96622.13;4944660;28;20600;-68
2021/03/21 00:12:02;;;;;;;8.57;6.20;;;0.90;60.80;;;-1.07;60.08;96619.34;4952631;28;20615;-70
2021/03/21 00:14:30;;;;;;;11.52;6.40;;;1.00;60.50;;;-1.05;60.37;96620.03;4913609;29;20039;-70
2021/03/21 00:16:57;;;;;;;13.88;6.82;;;1.00;60.30;;;-1.03;60.25;96613.03;4943148;28;20142;-69
2021/03/21 00:19:23;;;;;;;10.40;6.40;;;1.10;60.20;;;-1.04;60.11;96606.22;4934802;28;20038;-69
2021/03/21 00:21:49;;;;;;;10.38;6.68;;;1.00;60.20;;;-1.02;60.19;96607.75;4914910;28;20062;-69
2021/03/21 00:24:14;;;;;;;9.55;6.40;;;1.10;60.30;;;-1.01;60.05;96608.56;4951115;28;20063;-69
2021/03/21 00:26:40;;;;;;;9.90;6.18;;;1.10;60.00;;;-1.03;60.12;96598.34;4933768;28;20155;-69
2021/03/21 00:29:06;;;;;;;10.50;6.35;;;1.00;60.00;;;-1.02;60.27;96588.84;4963749;28;20095;-69
2021/03/21 00:31:32;;;;;;;8.80;6.43;;;1.10;60.10;;;-1.04;60.37;96601.03;4913304;28;20059;-69
2021/03/21 00:33:57;;;;;;;8.25;5.82;;;1.00;59.80;;;-1.06;60.26;96602.91;4924783;28;20725;-69
2021/03/21 00:36:23;;;;;;;10.05;6.38;;;0.90;60.10;;;-1.08;60.28;96594.44;4943656;28;20031;-69
2021/03/21 00:38:52;;;;;;;9.15;5.90;;;0.80;60.10;;;-1.08;60.69;96599.59;4964938;28;20086;-69
2021/03/21 00:41:21;;;;;;;8.65;6.00;;;0.90;60.10;;;-1.06;60.53;96602.91;4960120;28;20461;-68
2021/03/21 00:43:47;;;;;;;10.25;6.97;;;0.90;59.80;;;-1.10;59.90;96596.31;4966399;28;20113;-70
2021/03/21 00:46:13;;;;;;;12.18;6.60;;;0.80;59.80;;;-1.08;60.45;96597.03;4948685;28;20503;-69
2021/03/21 00:48:41;;;;;;;12.25;6.68;;;0.90;59.90;;;-1.10;60.39;96591.16;4949752;28;20097;-69
2021/03/21 00:51:08;;;;;;;10.55;6.97;;;0.90;59.80;;;-1.08;60.19;96594.44;4918742;28;20039;-69
2021/03/21 00:53:34;;;;;;;10.35;6.85;;;1.00;60.00;;;-1.11;60.38;96592.91;4943870;28;20125;-70
2021/03/21 00:55:59;;;;;;;11.00;5.82;;;0.90;60.00;;;-1.11;60.10;96585.16;4943149;28;20074;-69
2021/03/21 00:58:25;;;;;;;9.18;6.32;;;0.90;60.20;;;-1.11;60.04;96580.00;4939982;28;20051;-70
2021/03/21 01:00:53;;;;;;;9.82;5.85;;;0.90;60.00;;;-1.09;60.59;96587.63;4952140;28;20035;-69
2021/03/21 01:03:20;;;;;;;8.82;5.93;;;0.90;60.10;;;-1.08;60.32;96568.63;4952629;28;20046;-70
2021/03/21 01:05:53;;;;;;;10.02;6.07;;;1.00;60.00;;;-1.07;60.99;96575.44;4928325;28;20370;-70
2021/03/21 01:08:20;;;;;;;9.95;6.13;;;0.90;59.90;;;-1.08;60.71;96568.63;4927788;28;20126;-69
2021/03/21 01:10:46;;;;;;;10.52;5.43;;;1.00;60.00;;;-1.09;60.45;96575.56;4967324;28;20043;-69
2021/03/21 01:13:11;;;;;;;11.27;6.45;;;1.00;60.10;;;-1.09;60.17;96566.97;4942862;28;20093;-69
2021/03/21 01:15:37;;;;;;;10.40;5.78;;;0.90;59.90;;;-1.10;60.44;96566.16;4940371;29;20110;-69
2021/03/21 01:18:03;;;;;;;9.75;5.50;;;0.80;59.80;;;-1.14;60.21;96563.88;4944448;28;20075;-69
2021/03/21 01:20:29;;;;;;;10.68;6.20;;;0.80;60.20;;;-1.13;60.69;96565.50;4945011;28;20469;-69
2021/03/21 01:22:55;;;;;;;8.63;6.03;;;0.90;60.20;;;-1.14;60.48;96553.53;4917946;28;20043;-69
2021/03/21 01:25:25;;;;;;;8.85;5.45;;;0.80;59.90;;;-1.13;61.26;96555.19;4933984;28;20212;-69
2021/03/21 01:27:55;;;;;;;10.48;5.57;;;0.90;60.30;;;-1.10;60.66;96549.84;4930947;28;20542;-68
2021/03/21 01:30:25;;;;;;;9.38;5.40;;;0.90;59.80;;;-1.10;60.78;96549.84;4962857;28;20041;-68
2021/03/21 01:32:52;;;;;;;8.60;5.68;;;0.90;59.80;;;-1.08;60.46;96542.81;4943778;28;20170;-69
2021/03/21 01:35:18;;;;;;;8.00;5.13;;;0.90;59.60;;;-1.07;59.97;96539.31;4913386;28;20030;-70
2021/03/21 01:37:44;;;;;;;9.02;5.57;;;0.80;59.30;;;-1.12;60.54;96541.38;4947371;28;20077;-69
2021/03/21 01:40:12;;;;;;;10.35;5.47;;;0.80;59.70;;;-1.12;60.75;96533.63;4943574;28;20059;-68
2021/03/21 01:42:44;;;;;;;8.48;5.28;;;0.90;59.70;;;-1.10;60.95;96534.34;4933971;28;20180;-68
2021/03/21 01:45:37;;;;;;;7.82;4.93;;;0.90;59.50;;;-1.08;61.15;96529.91;4909599;28;20062;-68
2021/03/21 01:48:19;;;;;;;8.57;5.57;;;0.90;59.40;;;-1.10;60.75;96535.19;4947708;28;20105;-69
2021/03/21 01:50:50;;;;;;;7.40;4.97;;;0.90;59.50;;;-1.09;60.58;96523.91;4932317;28;20050;-69
2021/03/21 01:53:21;;;;;;;6.65;4.88;;;1.00;59.60;;;-1.11;60.56;96524.97;4939656;28;20439;-68
2021/03/21 01:55:47;;;;;;;10.15;5.00;;;0.80;59.60;;;-1.12;60.10;96513.00;4947145;28;20035;-69
2021/03/21 01:58:13;;;;;;;9.60;5.45;;;0.90;59.30;;;-1.08;60.22;96507.50;4952094;28;20118;-69
2021/03/21 02:00:39;;;;;;;8.90;5.13;;;1.00;59.00;;;-1.08;60.10;96502.34;4936137;28;20410;-69
2021/03/21 02:03:05;;;;;;;8.52;5.32;;;1.00;59.00;;;-1.10;60.27;96498.22;4952116;28;20038;-69
2021/03/21 02:05:32;;;;;;;8.20;4.85;;;0.90;58.90;;;-1.11;59.88;96494.00;4941117;29;20074;-68
2021/03/21 02:08:36;;;;;;;7.07;4.82;;;0.90;59.10;;;-1.11;61.37;96501.72;4918312;29;20040;-69
2021/03/21 02:11:26;;;;;;;7.13;5.03;;;0.90;59.10;;;-1.11;60.54;96501.72;4953285;28;20089;-69
2021/03/21 02:14:17;;;;;;;7.55;4.80;;;0.90;58.60;;;-1.13;60.68;96498.41;4964535;28;21677;-69
2021/03/21 02:16:58;;;;;;;8.07;4.63;;;0.90;58.80;;;-1.14;60.30;96496.75;4950856;28;20039;-69
2021/03/21 02:19:33;;;;;;;9.27;5.05;;;0.80;58.50;;;-1.14;60.78;96499.34;4927818;29;20035;-69
2021/03/21 02:22:08;;;;;;;8.13;5.30;;;0.90;58.70;;;-1.12;60.35;96492.34;4967731;28;20474;-69
2021/03/21 02:25:07;;;;;;;9.90;5.10;;;0.90;58.40;;;-1.12;60.71;96493.16;4931871;29;20049;-69
2021/03/21 02:28:06;;;;;;;8.77;5.45;;;0.80;58.80;;;-1.10;61.00;96487.88;4923787;28;20121;-68
2021/03/21 02:30:39;;;;;;;9.63;5.00;;;0.90;58.80;;;-1.10;60.11;96477.56;4945865;28;20502;-70
2021/03/21 02:33:55;;;;;;;7.22;4.90;;;0.90;58.50;;;-1.06;60.65;96479.81;4934181;29;20518;-68
2021/03/21 02:36:30;;;;;;;7.97;5.00;;;1.00;58.00;;;-1.07;60.42;96477.34;4853541;29;20186;-68
2021/03/21 02:39:12;;;;;;;6.43;4.63;;;0.90;58.00;;;-1.09;60.14;96479.22;4818025;29;20048;-70
2021/03/21 02:41:44;;;;;;;5.97;4.68;;;0.90;58.10;;;-1.08;60.25;96467.94;4870228;28;20110;-69
2021/03/21 02:44:34;;;;;;;;;;;0.90;57.90;;;-1.10;60.23;96456.91;4938474;28;20061;-69
2021/03/21 02:47:04;;;;;;;7.43;4.80;;;0.90;58.10;;;-1.11;59.97;96458.66;4933600;29;19934;-69
2021/03/21 02:49:37;;;;;;;9.15;5.55;;;0.90;58.50;;;-1.12;59.80;96458.78;4945995;28;20027;-69
2021/03/21 02:52:14;;;;;;;6.45;4.32;;;0.80;58.50;;;-1.14;60.24;96468.38;4937925;28;20117;-69
2021/03/21 02:54:56;;;;;;;9.68;4.90;;;0.80;58.70;;;-1.13;60.47;96457.09;4945594;28;20494;-69
2021/03/21 02:57:25;;;;;;;7.65;5.00;;;0.80;58.70;;;-1.15;59.87;96458.97;4938906;28;20050;-69
2021/03/21 02:59:53;;;;;;;10.70;4.68;;;0.80;58.50;;;-1.15;59.71;96454.63;4917778;28;20035;-69
2021/03/21 03:02:25;;;;;;;6.80;5.03;;;0.80;58.70;;;-1.13;60.04;96446.78;4937113;28;20031;-69
2021/03/21 03:05:03;;;;;;;8.23;4.88;;;0.90;58.40;;;-1.12;60.37;96445.88;4924769;28;20523;-69
2021/03/21 03:07:37;;;;;;;7.72;4.85;;;0.90;58.40;;;-1.12;60.46;96446.69;4918524;29;20046;-69
2021/03/21 03:10:31;;;;;;;8.68;5.07;;;1.00;58.60;;;-1.11;60.32;96444.94;4943464;28;20506;-69
2021/03/21 03:13:11;;;;;;;9.07;5.10;;;0.90;58.50;;;-1.10;60.32;96446.59;4954793;28;20039;-69
2021/03/21 03:15:39;;;;;;;6.90;5.00;;;0.90;58.60;;;-1.12;60.24;96440.72;4931719;29;20134;-69
2021/03/21 03:18:34;;;;;;;9.48;4.95;;;0.80;58.80;;;-1.14;60.57;96439.97;4943881;28;20065;-69
2021/03/21 03:21:10;;;;;;;9.23;4.93;;;0.70;59.10;;;-1.17;60.83;96435.84;4950430;28;20035;-69
2021/03/21 03:23:47;;;;;;;9.23;5.53;;;0.70;59.40;;;-1.14;61.11;96432.22;4932445;28;20042;-69
2021/03/21 03:26:26;;;;;;;8.07;5.22;;;0.80;59.60;;;-1.14;61.02;96430.47;4940717;28;20060;-69
2021/03/21 03:29:11;;;;;;;6.97;4.78;;;0.90;59.70;;;-1.12;60.70;96427.81;4934486;28;20050;-69
2021/03/21 03:31:41;;;;;;;9.52;5.43;;;0.90;59.20;;;-1.12;60.65;96423.47;4914022;28;20380;-69
2021/03/21 03:34:08;;;;;;;6.65;4.22;;;0.90;59.20;;;-1.10;60.16;96418.19;4962429;28;20035;-69
2021/03/21 03:36:34;;;;;;;7.68;5.38;;;1.00;59.20;;;-1.09;60.37;96417.25;4920996;29;20044;-69
2021/03/21 03:38:59;;;;;;;7.10;4.95;;;0.90;59.30;;;-1.08;60.53;96408.56;4930382;28;20031;-70
2021/03/21 03:41:52;;;;;;;7.63;5.20;;;0.90;59.60;;;-1.08;61.48;96404.25;4928359;29;20043;-69
2021/03/21 03:44:54;;;;;;;6.95;5.03;;;0.90;59.50;;;-1.11;61.12;96404.47;4933952;29;20503;-70
2021/03/21 03:47:31;;;;;;;6.93;4.68;;;0.80;59.80;;;-1.12;61.00;96396.84;4950081;28;20352;-68
2021/03/21 03:50:16;;;;;;;8.80;4.95;;;0.90;59.70;;;-1.11;61.25;96399.31;4936073;28;20027;-69
2021/03/21 03:53:09;;;;;;;9.80;5.57;;;0.80;60.00;;;-1.09;61.73;96401.78;4946777;28;20044;-68
2021/03/21 03:55:46;;;;;;;7.05;4.85;;;0.90;60.20;;;-1.07;60.84;96392.16;4951625;28;20050;-68
2021/03/21 03:58:17;;;;;;;9.18;5.40;;;0.90;59.80;;;-1.08;61.31;96398.25;4949923;28;20026;-68
2021/03/21 04:00:52;;;;;;;8.70;5.45;;;0.90;59.80;;;-1.08;61.41;96396.50;4965410;28;20039;-69
2021/03/21 04:03:49;;;;;;;7.68;5.47;;;0.90;59.70;;;-1.08;61.76;96390.50;4943255;29;20087;-68
2021/03/21 04:06:54;;;;;;;8.27;5.50;;;0.90;60.00;;;-1.09;61.62;96391.44;4935443;29;20047;-68
2021/03/21 04:09:32;;;;;;;9.55;5.28;;;0.80;60.10;;;-1.09;61.70;96386.28;4948557;28;20070;-69
2021/03/21 04:12:06;;;;;;;7.85;5.15;;;0.90;60.20;;;-1.09;61.34;96386.28;4934873;28;20715;-68
2021/03/21 04:14:47;;;;;;;8.77;5.47;;;0.90;60.20;;;-1.10;61.22;96389.81;4950203;28;20126;-69
2021/03/21 04:17:32;;;;;;;;;;;0.80;60.30;;;-1.13;61.65;96374.50;4948759;28;20128;-68
2021/03/21 04:20:11;;;;;;;7.00;5.25;;;0.80;60.20;;;-1.12;61.45;96374.41;4933078;29;20054;-68
2021/03/21 04:22:42;;;;;;;8.35;5.32;;;0.90;60.20;;;-1.11;61.33;96372.66;4944317;28;20149;-68
2021/03/21 04:25:21;;;;;;;9.05;5.47;;;0.90;60.30;;;-1.09;62.23;96376.78;4935941;28;20031;-69
2021/03/21 04:27:58;;;;;;;9.45;5.45;;;1.00;60.20;;;-1.08;61.36;96375.03;4920136;29;20039;-69
2021/03/21 04:30:39;;;;;;;7.80;4.78;;;1.00;59.80;;;-1.08;61.54;96373.25;4918428;28;20035;-68
2021/03/21 04:33:11;;;;;;;7.00;5.03;;;0.90;59.80;;;-1.09;61.20;96375.97;4947998;28;20043;-68
2021/03/21 04:35:41;;;;;;;6.82;5.18;;;0.90;59.70;;;-1.07;60.99;96368.94;4918323;29;20541;-67
2021/03/21 04:38:16;;;;;;;7.93;5.20;;;0.90;60.00;;;-1.09;61.37;96375.97;4921227;28;20481;-68
2021/03/21 04:40:42;;;;;;;10.02;5.00;;;0.80;60.10;;;-1.11;60.78;96370.09;4929045;28;20039;-69
2021/03/21 04:43:13;;;;;;;6.35;5.03;;;0.90;60.40;;;-1.10;61.16;96369.16;4937960;28;20050;-69
2021/03/21 04:45:47;;;;;;;8.18;4.72;;;0.90;60.40;;;-1.10;61.31;96369.16;4921293;29;20024;-68
2021/03/21 04:48:16;;;;;;;8.98;5.50;;;1.00;60.20;;;-1.08;61.24;96360.34;4909282;28;20046;-68
2021/03/21 04:50:42;;;;;;;9.98;5.35;;;1.00;60.30;;;-1.09;61.39;96361.28;4937791;28;20042;-69
2021/03/21 04:53:38;;;;;;;7.03;4.88;;;0.90;60.30;;;-1.07;61.88;96372.31;4923502;28;20047;-69
2021/03/21 04:56:21;;;;;;;8.90;5.47;;;1.00;60.30;;;-1.07;61.90;96372.31;4938852;29;20742;-69
2021/03/21 04:58:53;;;;;;;9.20;5.00;;;1.00;60.10;;;-1.08;61.80;96367.28;4957027;28;20044;-68
2021/03/21 05:01:31;;;;;;;12.15;7.88;;;0.90;60.40;;;-1.09;62.05;96368.22;4950747;28;20035;-69
2021/03/21 05:04:31;;;;;;;12.77;7.50;;;0.90;60.50;;;-1.08;62.33;96364.69;4936369;29;20122;-68
2021/03/21 05:07:00;;;;;;;8.32;5.32;;;0.90;60.20;;;-1.07;61.59;96363.75;4921835;28;20069;-68
2021/03/21 05:09:35;;;;;;;8.40;5.03;;;0.90;60.20;;;-1.07;61.03;96361.19;4940429;28;20045;-68
2021/03/21 05:12:38;;;;;;;8.85;5.43;;;1.00;60.10;;;-1.05;63.33;96367.06;4945579;29;20506;-68
2021/03/21 05:15:28;;;;;;;9.23;6.00;;;1.00;61.10;;;-1.02;63.25;96364.25;4934863;29;20036;-69
2021/03/21 05:18:39;;;;;;;16.17;9.48;;;1.00;61.10;;;-0.98;63.41;96365.66;4926587;29;20091;-69
2021/03/21 05:21:05;;;;;;;10.15;7.15;;;1.10;61.50;;;-0.96;61.61;96369.78;4921818;29;20122;-69
2021/03/21 05:23:48;;;;;;;8.80;5.72;;;1.10;60.60;;;-0.96;62.00;96371.53;4968412;28;20046;-70
2021/03/21 05:26:27;;;;;;;8.85;5.88;;;1.10;60.30;;;-0.94;62.38;96364.50;4942270;28;20026;-70
2021/03/21 05:29:34;;;;;;;8.15;5.30;;;1.10;60.00;;;-0.94;62.40;96364.50;4953652;28;20592;-69
2021/03/21 05:32:00;;;;;;;7.75;4.60;;;1.10;60.10;;;-0.94;61.49;96364.50;4950633;28;20039;-69
2021/03/21 05:34:25;;;;;;;9.13;4.82;;;1.10;59.80;;;-0.92;61.45;96367.78;4938191;28;20046;-70
2021/03/21 05:37:31;;;;;;;7.68;5.03;;;1.10;59.70;;;-0.90;62.18;96370.28;4950097;29;20415;-70
2021/03/21 05:40:37;;;;;;;8.65;5.03;;;1.10;59.70;;;-0.88;62.23;96368.41;4969193;28;20576;-68
2021/03/21 05:43:35;;;;;;;6.22;5.00;;;1.20;59.80;;;-0.87;61.62;96376.03;4966878;28;20062;-70
2021/03/21 05:46:44;;;;;;;9.35;4.65;;;1.10;59.50;;;-0.85;61.84;96374.19;4934955;29;20035;-68
2021/03/21 05:50:02;;;;;;;14.05;7.20;;;1.20;59.70;;;-0.85;61.56;96369.00;4957526;28;20117;-68
2021/03/21 05:53:15;;;;;;;9.85;7.10;;;1.20;59.60;;;-0.84;61.57;96368.06;4891387;28;20061;-68
2021/03/21 05:55:50;;;;;;;6.82;5.13;;;1.20;59.70;;;-0.85;61.27;96357.84;4951221;28;20038;-68
2021/03/21 05:58:43;;;;;;;13.00;8.32;;;1.10;59.30;;;-0.85;61.62;96353.50;4951303;28;20173;-68
2021/03/21 06:01:46;;;;;;;14.63;9.82;;;1.10;59.40;;;-0.82;61.37;96357.63;4947218;28;20034;-68
2021/03/21 06:05:05;;;;;;;7.57;4.70;;;1.20;59.40;;;-0.83;61.59;96353.41;4966315;28;20085;-68
2021/03/21 06:08:00;;;;;;;7.65;4.85;;;1.10;59.20;;;-0.81;60.93;96336.84;4933733;28;20402;-68
2021/03/21 06:10:57;;;;;;;8.23;4.85;;;1.20;58.90;;;-0.75;61.05;96338.16;4954420;28;20113;-68
2021/03/21 06:13:57;;;;;;;6.78;4.80;;;1.20;58.80;;;-0.75;61.19;96341.56;4952697;28;20494;-68
2021/03/21 06:17:06;;;;;;;7.88;5.00;;;1.20;58.40;;;-0.72;60.84;96333.56;4936635;29;20047;-69
2021/03/21 06:20:12;;;;;;;7.32;5.57;;;1.20;58.50;;;-0.74;60.69;96330.28;4934116;29;20049;-72
2021/03/21 06:23:07;;;;;;;8.20;4.70;;;1.20;58.30;;;-0.74;60.77;96337.22;4949046;28;20113;-73
2021/03/21 06:25:51;;;;;;;7.07;4.38;;;1.10;58.50;;;-0.73;60.80;96326.78;4933818;29;20035;-73
2021/03/21 06:28:44;;;;;;;6.25;4.20;;;1.20;58.40;;;-0.69;60.80;96333.34;4951377;29;20044;-73
2021/03/21 06:32:02;;;;;;;7.03;4.40;;;1.20;58.30;;;-0.66;60.96;96315.06;4951064;29;20098;-73
2021/03/21 06:34:40;;;;;;;8.18;4.60;;;1.40;58.10;;;-0.62;60.52;96319.06;4900344;29;20036;-73
2021/03/21 06:38:03;;;;;;;7.43;4.72;;;1.40;57.70;;;-0.54;60.23;96320.22;4920481;28;20085;-74
2021/03/21 06:40:42;;;;;;;7.60;4.75;;;1.50;57.40;;;-0.47;59.58;96316.25;4957042;28;20081;-73
2021/03/21 06:43:50;;;;;;;7.38;4.68;;;1.60;56.60;;;-0.39;59.92;96312.16;4953088;28;20118;-73
2021/03/21 06:46:47;;;;;;;9.82;4.72;;;1.80;56.70;;;-0.29;60.07;96320.03;4955411;28;20038;-74
2021/03/21 06:49:28;;;;;;;10.85;6.40;;;2.00;56.50;;;-0.18;59.86;96317.44;4952755;28;20126;-73
2021/03/21 06:52:07;;;;;;;10.32;5.50;;;2.10;56.10;;;-0.09;59.51;96316.72;4949646;28;20035;-74
2021/03/21 06:54:48;;;;;;;6.70;4.40;;;2.20;55.00;;;-0.01;59.49;96310.97;4938520;28;20037;-74
2021/03/21 06:57:57;;;;;;;5.80;4.30;;;2.20;54.80;;;0.06;59.05;96311.34;4954040;28;20043;-73
2021/03/21 07:01:02;;;;;;;6.38;4.30;;;2.20;54.80;;;0.10;58.71;96308.38;4949519;28;20046;-74
2021/03/21 07:04:12;;;;;;;8.90;4.70;;;2.20;54.80;;;0.15;58.65;96297.66;4949379;28;20047;-74
2021/03/21 07:07:06;;;;;;;8.13;4.28;;;2.10;54.80;;;0.17;58.21;96288.84;4950013;28;20584;-73
2021/03/21 07:10:02;;;;;;;7.35;4.00;;;2.30;53.70;;;0.22;57.86;96286.72;4964291;28;20154;-74
2021/03/21 07:13:30;;;;;;;6.43;4.38;;;2.20;53.20;;;0.29;57.46;96284.50;4959466;28;20035;-73
2021/03/21 07:16:26;;;;;;;7.07;4.15;;;2.40;53.30;;;0.34;56.78;96277.19;4871246;29;20186;-77
2021/03/21 07:19:29;;;;;;;5.07;3.60;;;2.30;52.80;;;0.42;57.28;96279.97;4933544;29;20125;-71
2021/03/21 07:22:35;;;;;;;5.15;3.45;;;2.60;52.60;;;0.48;56.10;96289.84;4969245;28;20035;-71
2021/03/21 07:25:43;;;;;;;6.97;3.42;;;2.60;51.40;;;0.50;55.72;96279.38;4955407;28;20035;-68
2021/03/21 07:28:48;;;;;;;6.28;3.80;;;2.40;51.00;;;0.51;55.80;96268.91;4935054;28;20046;-72
2021/03/21 07:31:54;;;;;;;3.78;2.95;;;2.50;51.40;;;0.54;55.22;96268.66;4933147;29;20392;-69
2021/03/21 07:34:39;;;;;;;7.45;3.63;;;2.50;50.70;;;0.55;55.68;96259.94;4933475;29;20043;-70
2021/03/21 07:37:45;;;;;;;7.40;3.92;;;2.60;51.00;;;0.64;55.09;96262.72;4935794;28;20043;-67
2021/03/21 07:40:23;;;;;;;8.30;4.63;;;2.60;50.30;;;0.62;55.07;96260.25;4950287;29;20062;-68
2021/03/21 07:43:22;;;;;;;16.95;7.30;;;2.50;50.00;;;0.63;55.09;96266.25;4941760;28;20467;-67
2021/03/21 07:46:23;;;;;;;7.07;4.35;;;2.60;51.00;;;0.65;54.61;96266.94;4958449;28;20050;-68
2021/03/21 07:49:09;;;;;;;8.57;4.38;;;2.40;50.20;;;0.62;55.12;96273.19;4915512;28;20047;-71
2021/03/21 07:52:01;;;;;;;7.50;4.65;;;2.50;50.10;;;0.63;54.63;96266.25;4953423;28;20545;-67
2021/03/21 07:54:57;;;;;;;6.93;4.28;;;2.60;50.80;;;0.63;54.91;96261.91;4934596;29;20454;-73
2021/03/21 07:57:40;;;;;;;8.63;5.93;;;2.50;50.20;;;0.65;54.93;96261.78;4928103;28;20046;-73
2021/03/21 08:00:09;;;;;;;9.05;4.85;;;2.60;50.70;;;0.65;54.95;96260.00;4964513;28;20454;-71
2021/03/21 08:02:34;;;;;;;8.43;4.57;;;2.60;49.90;;;0.68;55.38;96262.38;4947161;28;20089;-71
2021/03/21 08:05:16;;;;;;;12.80;6.60;;;2.70;49.80;;;0.71;54.37;96274.25;4952055;28;20499;-70
2021/03/21 08:07:44;;;;;;;6.57;3.13;;;2.60;50.10;;;0.73;54.78;96272.34;4918402;28;20034;-69
2021/03/21 08:10:28;;;;;;;5.55;3.78;;;2.60;49.80;;;0.76;54.51;96269.50;4949667;28;20423;-69
2021/03/21 08:13:33;;;;;;;5.38;3.72;;;2.70;50.10;;;0.78;53.79;96271.03;4917588;28;20067;-71
2021/03/21 08:16:00;;;;;;;8.52;4.45;;;2.70;50.10;;;0.80;54.92;96269.13;4934207;28;20402;-70
2021/03/21 08:18:31;;;;;;;5.60;3.65;;;2.70;50.40;;;0.82;54.71;96266.41;4935462;29;20503;-66
2021/03/21 08:21:05;;;;;;;;;;;2.70;50.40;;;0.83;54.29;96263.69;4921578;29;20410;-67
2021/03/21 08:23:37;;;;;;;5.90;3.78;;;2.70;50.50;;;0.79;54.21;96272.66;4934751;28;19948;-66
2021/03/21 08:26:09;;;;;;;10.23;5.50;;;2.60;50.10;;;0.77;54.27;96273.75;4924718;28;20553;-67
2021/03/21 08:28:38;;;;;;;5.35;3.80;;;2.60;50.30;;;0.77;54.91;96264.19;4954718;28;20414;-66
2021/03/21 08:31:11;;;;;;;7.65;3.30;;;2.60;50.20;;;0.76;54.22;96262.56;4949186;28;20035;-66
2021/03/21 08:33:42;;;;;;;6.20;3.85;;;2.60;50.80;;;0.76;54.22;96266.91;4920255;29;20432;-66
2021/03/21 08:36:22;;;;;;;5.93;3.60;;;2.60;50.40;;;0.75;54.26;96260.09;4921464;29;20043;-73
2021/03/21 08:39:04;;;;;;;8.13;4.28;;;2.60;51.00;;;0.74;54.27;96253.28;4951969;28;20034;-72
2021/03/21 08:41:31;;;;;;;6.80;4.25;;;2.60;50.90;;;0.74;54.64;96253.28;4954674;28;20042;-70
2021/03/21 08:44:02;;;;;;;7.88;4.07;;;2.60;51.40;;;0.73;54.97;96251.63;4955563;28;20578;-71
2021/03/21 08:46:28;;;;;;;7.07;4.28;;;2.60;51.20;;;0.76;54.70;96243.63;4954508;28;20042;-69
2021/03/21 08:49:05;;;;;;;6.03;3.75;;;2.70;51.10;;;0.79;55.07;96243.38;4938281;28;20529;-73
2021/03/21 08:51:38;;;;;;;8.23;4.57;;;2.80;51.00;;;0.84;55.30;96244.63;4954940;28;20036;-70
2021/03/21 08:54:28;;;;;;;5.85;3.70;;;2.90;51.40;;;0.85;54.76;96230.72;4949394;28;20027;-73
2021/03/21 08:56:57;;;;;;;7.80;3.88;;;2.80;51.00;;;0.90;54.62;96240.69;4952112;29;20047;-72
2021/03/21 08:59:49;;;;;;;8.88;4.32;;;2.90;50.40;;;0.92;54.68;96244.03;4970407;28;20035;-70
2021/03/21 09:02:17;;;;;;;6.32;3.50;;;2.90;51.00;;;0.97;55.09;96239.28;4968430;28;20035;-70
2021/03/21 09:04:47;;;;;;;7.13;4.00;;;3.00;50.20;;;0.99;54.41;96242.56;4970187;28;20042;-68
2021/03/21 09:07:26;;;;;;;6.32;3.95;;;3.00;50.10;;;1.01;54.32;96240.66;4952674;28;20034;-68
2021/03/21 09:10:12;;;;;;;10.13;6.10;;;2.90;50.50;;;1.04;54.57;96234.41;4941656;28;20117;-68
2021/03/21 09:12:43;;;;;;;13.80;5.18;;;2.90;50.40;;;1.07;54.14;96234.97;4971827;28;20062;-69
2021/03/21 09:15:41;;;;;;;12.10;6.00;;;3.10;51.00;;;1.09;54.14;96233.06;4955195;28;20031;-68
2021/03/21 09:18:20;;;;;;;7.75;4.82;;;3.00;50.20;;;1.13;55.27;96224.13;4940522;28;20031;-68
2021/03/21 09:21:16;;;;;;;11.30;5.78;;;3.10;51.10;;;1.15;53.74;96219.63;4954525;28;20049;-69
2021/03/21 09:24:07;;;;;;;6.35;3.90;;;3.10;49.70;;;1.17;54.98;96222.91;4945499;29;20032;-69
2021/03/21 09:26:42;;;;;;;5.80;3.60;;;3.10;50.20;;;1.24;54.96;96236.16;4936661;28;20054;-69
2021/03/21 09:29:11;;;;;;;6.03;3.83;;;3.30;50.20;;;1.30;54.28;96229.63;4938740;28;20035;-69
2021/03/21 09:31:37;;;;;;;6.15;4.05;;;3.40;50.20;;;1.33;54.75;96224.19;4967365;28;20024;-70
2021/03/21 09:34:08;;;;;;;6.07;4.40;;;3.30;50.30;;;1.40;54.40;96230.53;4949645;28;20073;-71
2021/03/21 09:37:09;;;;;;;7.25;4.20;;;3.50;50.60;;;1.46;54.01;96220.44;4952704;28;20053;-71
2021/03/21 09:39:38;;;;;;;6.43;3.80;;;3.60;49.90;;;1.51;54.72;96228.66;4925167;29;20491;-70
2021/03/21 09:42:08;;;;;;;7.65;4.28;;;3.60;50.10;;;1.54;54.36;96222.38;4935880;29;20118;-72
2021/03/21 09:44:42;;;;;;;7.00;4.57;;;3.60;50.00;;;1.58;54.50;96228.94;4950911;28;20030;-70
2021/03/21 09:47:30;;;;;;;5.00;3.75;;;3.60;50.40;;;1.61;54.07;96233.88;4953476;28;20035;-70
2021/03/21 09:50:16;;;;;;;7.05;4.10;;;3.50;50.20;;;1.60;54.00;96226.25;4933752;28;20039;-72
2021/03/21 09:52:56;;;;;;;6.20;4.47;;;3.40;49.90;;;1.57;53.81;96231.66;4939429;28;20060;-71
2021/03/21 09:55:38;;;;;;;7.22;4.00;;;3.40;50.60;;;1.57;54.01;96229.88;4950351;28;20062;-70
2021/03/21 09:58:49;;;;;;;8.35;4.30;;;3.40;50.50;;;1.57;53.23;96227.31;4938404;28;20750;-72
2021/03/21 10:01:38;;;;;;;10.88;5.25;;;3.50;49.80;;;1.56;54.39;96235.22;4925097;28;20083;-71
2021/03/21 10:04:22;;;;;;;5.90;3.85;;;3.40;50.70;;;1.57;54.33;96237.66;4949791;28;20042;-71
2021/03/21 10:06:49;;;;;;;6.97;4.32;;;3.50;51.00;;;1.55;55.01;96224.03;4928626;28;20053;-72
2021/03/21 10:09:19;;;;;;;6.20;4.35;;;3.40;50.30;;;1.56;54.77;96219.66;4937131;28;20056;-71
2021/03/21 10:12:07;;;;;;;8.10;4.90;;;3.50;51.40;;;1.55;54.60;96218.84;4953347;28;20039;-70
2021/03/21 10:14:32;;;;;;;6.43;4.03;;;3.40;50.10;;;1.51;54.05;96222.63;4936707;28;20035;-71
2021/03/21 10:16:59;;;;;;;6.75;4.43;;;3.30;50.30;;;1.45;54.08;96215.41;4977462;28;20621;-71
2021/03/21 10:19:40;;;;;;;20.15;11.43;;;3.10;51.00;;;1.48;54.59;96212.53;4933652;28;20450;-68
2021/03/21 10:22:35;;;;;;;9.13;5.83;;;3.40;51.10;;;1.46;53.92;96206.66;4958906;28;20495;-71
2021/03/21 10:25:09;;;;;;;8.57;5.13;;;3.20;50.90;;;1.49;54.96;96214.19;4964760;28;20442;-70
2021/03/21 10:27:46;;;;;;;8.27;4.80;;;3.40;51.60;;;1.53;54.37;96211.19;4964857;28;20043;-68
2021/03/21 10:30:25;;;;;;;5.28;3.65;;;3.50;51.00;;;1.56;54.91;96209.28;4946557;28;20118;-68
2021/03/21 10:33:00;;;;;;;6.53;4.20;;;3.40;51.00;;;1.57;54.94;96210.94;4952603;28;20664;-67
2021/03/21 10:35:28;;;;;;;8.38;4.40;;;3.50;51.00;;;1.61;54.03;96213.16;4970215;28;20042;-68
2021/03/21 10:37:59;;;;;;;5.30;3.90;;;3.60;50.70;;;1.62;54.89;96198.41;4969944;28;20035;-67
2021/03/21 10:40:24;;;;;;;8.63;4.35;;;3.50;50.30;;;1.60;54.02;96200.31;4940526;28;20046;-65
2021/03/21 10:42:53;;;;;;;8.85;4.90;;;3.40;51.20;;;1.61;54.82;96214.91;4970548;28;20105;-69
2021/03/21 10:45:53;;;;;;;8.48;5.22;;;3.40;51.20;;;1.59;55.27;96198.69;4951174;28;20054;-72
2021/03/21 10:48:18;;;;;;;8.55;4.30;;;3.50;52.10;;;1.62;55.57;96196.66;4911388;29;20260;-71
2021/03/21 10:50:56;;;;;;;8.82;5.47;;;3.50;53.30;;;1.64;55.97;96194.72;4968260;28;20536;-72
2021/03/21 10:53:55;;;;;;;7.72;5.28;;;3.50;53.60;;;1.66;57.40;96194.59;4942101;28;20113;-71
2021/03/21 10:56:29;;;;;;;5.95;4.45;;;3.50;54.70;;;1.71;56.81;96187.25;4938813;28;20046;-72
2021/03/21 10:59:25;;;;;;;6.80;4.68;;;3.60;56.10;;;1.72;57.51;96187.09;4918725;29;20114;-72
2021/03/21 11:02:19;;;;;;;7.80;4.80;;;3.60;57.00;;;1.72;58.22;96183.69;4930437;28;20050;-72
2021/03/21 11:04:45;;;;;;;7.28;4.60;;;3.60;57.80;;;1.76;58.26;96182.47;4949471;28;20518;-72
2021/03/21 11:07:18;;;;;;;7.85;4.57;;;3.60;58.60;;;1.75;59.36;96179.06;4930294;28;20077;-69
2021/03/21 11:10:06;;;;;;;8.43;4.95;;;3.60;59.30;;;1.81;59.76;96181.16;4947705;28;20057;-69
2021/03/21 11:12:40;;;;;;;9.20;5.82;;;3.80;59.20;;;1.81;59.38;96170.78;4939005;28;20039;-68
2021/03/21 11:15:38;;;;;;;11.32;6.07;;;3.50;59.50;;;1.76;60.95;96180.69;4942545;28;20043;-70
2021/03/21 11:18:14;;;;;;;9.43;5.55;;;3.50;61.00;;;1.70;59.75;96173.47;4918376;28;20042;-66
2021/03/21 11:20:39;;;;;;;8.02;5.57;;;3.40;60.90;;;1.71;59.67;96171.69;4935060;29;20050;-65
2021/03/21 11:23:19;;;;;;;10.82;5.32;;;3.40;60.80;;;1.77;60.04;96171.16;4926519;28;20134;-66
2021/03/21 11:25:45;;;;;;;10.00;5.38;;;3.80;60.80;;;1.87;59.93;96168.59;4929669;29;20040;-69